createdAt,value
2022-11-23T00:01:25.625Z,1.50
2022-11-23T00:03:55.162Z,1.40
2022-11-23T00:06:25.995Z,1.40
2022-11-23T00:08:56.566Z,1.08
2022-11-23T00:11:25.928Z,1.13
2022-11-23T00:13:53.688Z,1.38
2022-11-23T00:16:26.054Z,2.10
2022-11-23T00:18:54.497Z,1.48
2022-11-23T00:21:23.007Z,1.30
2022-11-23T00:23:50.352Z,1.70
2022-11-23T00:26:17.883Z,1.63
2022-11-23T00:28:45.321Z,1.20
2022-11-23T00:31:14.703Z,1.60
2022-11-23T00:33:43.689Z,1.25
2022-11-23T00:36:15.717Z,1.52
2022-11-23T00:38:43.923Z,1.65
2022-11-23T00:41:14.613Z,1.35
2022-11-23T00:43:42.878Z,1.65
2022-11-23T00:46:17.163Z,1.77
2022-11-23T00:48:45.890Z,1.60
2022-11-23T00:51:16.813Z,1.80
2022-11-23T00:53:44.186Z,1.48
2022-11-23T00:56:12.147Z,1.90
2022-11-23T00:58:39.618Z,2.03
2022-11-23T01:01:15.162Z,3.20
2022-11-23T01:03:44.943Z,2.67
2022-11-23T01:06:24.022Z,2.30
2022-11-23T01:08:54.268Z,3.53
2022-11-23T01:11:23.522Z,3.28
2022-11-23T01:13:51.229Z,2.13
2022-11-23T01:16:32.537Z,1.65
2022-11-23T01:19:05.235Z,1.90
2022-11-23T01:21:33.263Z,2.00
2022-11-23T01:24:00.731Z,2.70
2022-11-23T01:26:28.017Z,2.53
2022-11-23T01:31:25.703Z,1.98
2022-11-23T01:33:58.075Z,2.25
2022-11-23T01:36:27.604Z,2.20
2022-11-23T01:38:55.677Z,2.20
2022-11-23T01:41:26.061Z,2.35
2022-11-23T01:46:20.895Z,2.97
2022-11-23T01:48:55.706Z,3.58
2022-11-23T01:51:34.152Z,3.30
2022-11-23T01:54:05.256Z,2.38
2022-11-23T01:56:38.254Z,2.60
2022-11-23T01:59:09.616Z,4.05
2022-11-23T02:01:37.029Z,7.72
2022-11-23T02:04:07.082Z,14.07
2022-11-23T02:06:34.636Z,9.05
2022-11-23T02:09:03.347Z,6.38
2022-11-23T02:11:30.688Z,4.85
2022-11-23T02:14:01.211Z,3.55
2022-11-23T02:16:30.816Z,4.32
2022-11-23T02:18:58.536Z,3.65
2022-11-23T02:21:25.948Z,2.80
2022-11-23T02:24:14.847Z,2.30
2022-11-23T02:26:42.180Z,2.45
2022-11-23T02:29:15.882Z,2.25
2022-11-23T02:31:42.818Z,2.05
2022-11-23T02:34:10.284Z,1.60
2022-11-23T02:36:41.520Z,2.15
2022-11-23T02:39:17.809Z,2.10
2022-11-23T02:41:52.174Z,2.00
2022-11-23T02:44:41.472Z,1.63
2022-11-23T02:47:10.403Z,1.92
2022-11-23T02:49:41.524Z,2.15
2022-11-23T02:52:09.519Z,2.80
2022-11-23T02:54:36.504Z,2.70
2022-11-23T02:57:03.865Z,2.75
2022-11-23T02:59:32.847Z,2.78
2022-11-23T03:02:01.791Z,3.08
2022-11-23T03:04:30.412Z,1.80
2022-11-23T03:06:57.684Z,2.65
2022-11-23T03:09:26.417Z,2.00
2022-11-23T03:11:54.595Z,2.40
2022-11-23T03:14:22.168Z,1.83
2022-11-23T03:16:53.689Z,3.38
2022-11-23T03:19:20.723Z,2.10
2022-11-23T03:21:49.959Z,1.70
2022-11-23T03:24:17.523Z,2.58
2022-11-23T03:26:46.127Z,1.83
2022-11-23T03:29:18.992Z,1.85
2022-11-23T03:31:46.862Z,2.15
2022-11-23T03:34:15.575Z,2.33
2022-11-23T03:36:44.470Z,7.50
2022-11-23T03:39:12.241Z,6.55
2022-11-23T03:42:05.374Z,5.63
2022-11-23T03:44:34.844Z,3.07
2022-11-23T03:47:01.781Z,3.08
2022-11-23T03:49:29.473Z,2.00
2022-11-23T03:51:56.867Z,1.90
2022-11-23T03:54:24.223Z,3.05
2022-11-23T03:56:51.515Z,3.28
2022-11-23T03:59:19.134Z,1.77
2022-11-23T04:01:46.557Z,2.03
2022-11-23T04:04:21.225Z,2.80
2022-11-23T04:06:57.512Z,1.90
2022-11-23T04:09:29.418Z,2.03
2022-11-23T04:12:06.125Z,2.08
2022-11-23T04:14:35.807Z,2.05
2022-11-23T04:17:03.132Z,2.60
2022-11-23T04:19:31.530Z,2.20
2022-11-23T04:21:58.769Z,1.95
2022-11-23T04:24:28.297Z,2.10
2022-11-23T04:26:58.298Z,2.28
2022-11-23T04:29:25.762Z,2.25
2022-11-23T04:31:54.696Z,2.00
2022-11-23T04:34:22.753Z,2.20
2022-11-23T04:36:53.424Z,2.33
2022-11-23T04:39:27.171Z,2.60
2022-11-23T04:42:14.376Z,2.30
2022-11-23T04:44:48.201Z,1.92
2022-11-23T04:47:15.948Z,1.70
2022-11-23T04:49:45.346Z,2.13
2022-11-23T04:52:12.496Z,1.98
2022-11-23T04:54:45.808Z,2.17
2022-11-23T04:57:12.850Z,2.22
2022-11-23T04:59:40.938Z,1.70
2022-11-23T05:02:07.995Z,1.55
2022-11-23T05:05:13.751Z,2.17
2022-11-23T05:07:40.837Z,2.45
2022-11-23T05:10:10.142Z,1.70
2022-11-23T05:12:37.977Z,1.55
2022-11-23T05:15:05.918Z,1.92
2022-11-23T05:17:36.470Z,1.98
2022-11-23T05:20:06.330Z,2.25
2022-11-23T05:22:35.912Z,1.77
2022-11-23T05:25:06.288Z,1.98
2022-11-23T05:27:35.176Z,2.55
2022-11-23T05:30:02.385Z,1.90
2022-11-23T05:32:29.351Z,2.80
2022-11-23T05:34:58.236Z,1.95
2022-11-23T05:37:28.263Z,1.92
2022-11-23T05:40:03.662Z,1.83
2022-11-23T05:42:31.564Z,1.73
2022-11-23T05:45:11.059Z,1.70
2022-11-23T05:47:42.103Z,1.65
2022-11-23T05:50:19.024Z,1.67
2022-11-23T05:52:47.338Z,2.05
2022-11-23T05:55:14.902Z,2.10
2022-11-23T05:57:42.522Z,2.15
2022-11-23T06:00:10.929Z,2.40
2022-11-23T06:02:49.402Z,1.88
2022-11-23T06:05:16.574Z,1.55
2022-11-23T06:07:52.959Z,1.77
2022-11-23T06:10:23.993Z,1.50
2022-11-23T06:12:52.641Z,2.35
2022-11-23T06:15:22.146Z,1.70
2022-11-23T06:17:49.582Z,1.48
2022-11-23T06:20:20.972Z,1.60
2022-11-23T06:23:01.328Z,1.83
2022-11-23T06:25:29.035Z,1.73
2022-11-23T06:28:03.418Z,1.92
2022-11-23T06:30:39.883Z,2.47
2022-11-23T06:33:08.542Z,2.45
2022-11-23T06:35:43.090Z,1.80
2022-11-23T06:38:10.387Z,1.30
2022-11-23T06:40:38.861Z,1.60
2022-11-23T06:43:06.154Z,4.78
2022-11-23T06:45:43.208Z,2.40
2022-11-23T06:48:14.097Z,1.92
2022-11-23T06:50:45.431Z,1.30
2022-11-23T06:53:15.131Z,2.22
2022-11-23T06:55:47.502Z,2.28
2022-11-23T06:58:17.551Z,2.70
2022-11-23T07:00:45.153Z,3.67
2022-11-23T07:03:23.819Z,2.08
2022-11-23T07:05:58.069Z,2.00
2022-11-23T07:08:28.201Z,1.70
2022-11-23T07:11:05.614Z,1.45
2022-11-23T07:13:33.242Z,1.85
2022-11-23T07:16:00.232Z,1.80
2022-11-23T07:18:27.711Z,1.75
2022-11-23T07:20:59.796Z,2.28
2022-11-23T07:23:27.197Z,2.05
2022-11-23T07:25:54.145Z,1.88
2022-11-23T07:28:22.680Z,2.25
2022-11-23T07:30:52.176Z,2.30
2022-11-23T07:33:21.221Z,2.25
2022-11-23T07:35:49.455Z,2.42
2022-11-23T07:38:16.761Z,1.73
2022-11-23T07:40:44.059Z,1.95
2022-11-23T07:43:23.599Z,1.92
2022-11-23T07:45:50.896Z,2.28
2022-11-23T07:48:18.412Z,1.90
2022-11-23T07:50:45.366Z,1.88
2022-11-23T07:53:12.634Z,1.88
2022-11-23T07:55:39.540Z,2.08
2022-11-23T07:58:06.561Z,2.20
2022-11-23T08:00:33.887Z,2.20
2022-11-23T08:05:48.492Z,2.17
2022-11-23T08:08:15.419Z,1.80
2022-11-23T08:10:47.179Z,1.63
2022-11-23T08:13:16.955Z,1.90
2022-11-23T08:15:46.456Z,2.05
2022-11-23T08:18:15.706Z,2.00
2022-11-23T08:20:42.605Z,2.17
2022-11-23T08:23:10.033Z,2.58
2022-11-23T08:25:36.952Z,2.42
2022-11-23T08:28:06.116Z,1.75
2022-11-23T08:30:35.057Z,1.85
2022-11-23T08:33:06.333Z,2.03
2022-11-23T08:35:34.384Z,2.05
2022-11-23T08:38:01.241Z,2.08
2022-11-23T08:40:28.248Z,2.15
2022-11-23T08:42:55.460Z,2.30
2022-11-23T08:45:22.898Z,1.83
2022-11-23T08:47:50.929Z,2.67
2022-11-23T08:50:18.398Z,1.92
2022-11-23T08:52:45.383Z,1.58
2022-11-23T08:55:12.734Z,2.85
2022-11-23T08:57:39.993Z,2.30
2022-11-23T09:00:07.886Z,1.95
2022-11-23T09:02:34.748Z,1.77
2022-11-23T09:05:02.092Z,2.58
2022-11-23T09:07:29.049Z,1.73
2022-11-23T09:09:56.456Z,2.38
2022-11-23T09:12:23.346Z,2.00
2022-11-23T09:14:50.240Z,2.60
2022-11-23T09:17:17.100Z,1.90
2022-11-23T09:19:44.077Z,1.90
2022-11-23T09:22:10.941Z,2.03
2022-11-23T09:24:38.066Z,2.00
2022-11-23T09:27:05.459Z,1.85
2022-11-23T09:29:32.350Z,2.33
2022-11-23T09:31:59.240Z,2.08
2022-11-23T09:34:26.508Z,2.60
2022-11-23T09:36:53.441Z,1.75
2022-11-23T09:39:20.720Z,3.55
2022-11-23T09:42:25.628Z,2.40
2022-11-23T09:45:13.794Z,1.73
2022-11-23T09:48:18.119Z,3.40
2022-11-23T09:51:05.505Z,1.90
2022-11-23T09:53:45.668Z,2.88
2022-11-23T09:56:22.696Z,2.50
2022-11-23T09:58:54.644Z,2.55
2022-11-23T10:01:22.284Z,2.38
2022-11-23T10:03:49.801Z,2.13
2022-11-23T10:06:22.835Z,2.25
2022-11-23T10:09:17.053Z,2.25
2022-11-23T10:12:21.219Z,2.08
2022-11-23T10:15:04.505Z,3.15
2022-11-23T10:17:58.483Z,2.42
2022-11-23T10:21:01.431Z,2.35
2022-11-23T10:23:48.293Z,2.05
2022-11-23T10:26:18.205Z,2.03
2022-11-23T10:28:46.699Z,2.10
2022-11-23T10:31:17.492Z,2.35
2022-11-23T10:34:14.414Z,1.75
2022-11-23T10:36:41.894Z,1.80
2022-11-23T10:39:29.111Z,2.13
2022-11-23T10:42:01.717Z,1.92
2022-11-23T10:44:36.936Z,2.10
2022-11-23T10:47:04.897Z,2.42
2022-11-23T10:49:35.863Z,1.85
2022-11-23T10:52:27.856Z,2.00
2022-11-23T10:54:57.528Z,1.50
2022-11-23T10:57:44.669Z,2.10
2022-11-23T11:00:14.812Z,2.30
2022-11-23T11:02:49.879Z,2.05
2022-11-23T11:08:25.441Z,2.20
2022-11-23T11:13:33.291Z,2.42
2022-11-23T11:16:05.739Z,2.33
2022-11-23T11:18:35.598Z,2.22
2022-11-23T11:21:06.847Z,2.20
2022-11-23T11:23:39.794Z,1.67
2022-11-23T11:26:25.812Z,1.67
2022-11-23T11:28:58.805Z,1.90
2022-11-23T11:32:04.508Z,1.67
2022-11-23T11:34:46.227Z,2.03
2022-11-23T11:37:27.145Z,1.98
2022-11-23T11:40:06.667Z,1.90
2022-11-23T11:42:47.094Z,2.03
2022-11-23T11:45:23.801Z,1.52
2022-11-23T11:48:02.960Z,1.85
2022-11-23T11:50:34.369Z,2.30
2022-11-23T11:53:11.513Z,1.70
2022-11-23T11:55:56.153Z,1.85
2022-11-23T11:58:26.340Z,1.58
2022-11-23T12:01:26.562Z,2.08
2022-11-23T12:03:59.347Z,2.15
2022-11-23T12:06:46.195Z,2.25
2022-11-23T12:09:17.669Z,1.80
2022-11-23T12:11:44.893Z,1.80
2022-11-23T12:14:14.524Z,2.38
2022-11-23T12:20:12.305Z,1.80
2022-11-23T12:23:00.551Z,2.38
2022-11-23T12:25:36.934Z,1.73
2022-11-23T12:28:25.842Z,2.00
2022-11-23T12:31:14.262Z,1.88
2022-11-23T12:34:12.412Z,1.95
2022-11-23T12:37:14.399Z,1.55
2022-11-23T12:40:11.837Z,2.58
2022-11-23T12:43:01.499Z,2.35
2022-11-23T12:45:50.039Z,2.40
2022-11-23T12:48:42.848Z,2.40
2022-11-23T12:51:31.526Z,2.00
2022-11-23T12:54:27.071Z,1.88
2022-11-23T12:57:02.958Z,2.72
2022-11-23T12:59:42.876Z,2.00
2022-11-23T13:02:44.879Z,1.90
2022-11-23T13:05:47.701Z,2.92
2022-11-23T13:08:51.027Z,2.03
2022-11-23T13:11:55.577Z,2.05
2022-11-23T13:14:35.673Z,1.77
2022-11-23T13:17:13.166Z,2.42
2022-11-23T13:19:54.592Z,1.98
2022-11-23T13:22:23.001Z,1.40
2022-11-23T13:25:04.591Z,1.70
2022-11-23T13:27:32.446Z,2.13
2022-11-23T13:30:07.612Z,1.98
2022-11-23T13:32:42.819Z,2.42
2022-11-23T13:35:19.027Z,1.58
2022-11-23T13:37:58.182Z,2.03
2022-11-23T13:40:34.304Z,2.40
2022-11-23T13:43:18.255Z,1.85
2022-11-23T13:45:45.987Z,2.47
2022-11-23T13:48:48.911Z,2.25
2022-11-23T13:51:07.298Z,2.80
2022-11-23T13:53:51.107Z,2.17
2022-11-23T13:56:33.971Z,1.92
2022-11-23T13:59:24.214Z,2.53
2022-11-23T14:02:10.310Z,1.80
2022-11-23T14:04:45.431Z,2.13
2022-11-23T14:07:25.589Z,1.65
2022-11-23T14:10:05.322Z,1.88
2022-11-23T14:12:50.128Z,2.00
2022-11-23T14:15:21.118Z,2.58
2022-11-23T14:18:01.733Z,2.33
2022-11-23T14:20:31.646Z,2.03
2022-11-23T14:23:19.080Z,1.75
2022-11-23T14:26:07.220Z,1.77
2022-11-23T14:28:39.897Z,2.28
2022-11-23T14:31:27.801Z,2.10
2022-11-23T14:34:32.558Z,1.73
2022-11-23T14:37:34.396Z,2.17
2022-11-23T14:40:27.513Z,2.17
2022-11-23T14:42:56.158Z,2.65
2022-11-23T14:45:28.370Z,1.40
2022-11-23T14:47:55.510Z,1.55
2022-11-23T14:50:28.554Z,2.13
2022-11-23T14:52:59.035Z,1.67
2022-11-23T14:55:28.503Z,1.83
2022-11-23T14:58:06.463Z,1.70
2022-11-23T15:00:39.233Z,1.60
2022-11-23T15:06:18.517Z,1.73
2022-11-23T15:09:09.522Z,1.67
2022-11-23T15:11:38.096Z,2.35
2022-11-23T15:14:21.553Z,1.58
2022-11-23T15:16:49.446Z,2.33
2022-11-23T15:19:29.539Z,2.95
2022-11-23T15:21:57.491Z,2.40
2022-11-23T15:24:27.019Z,2.70
2022-11-23T15:27:06.518Z,3.25
2022-11-23T15:29:38.638Z,2.83
2022-11-23T15:32:32.763Z,3.17
2022-11-23T15:35:06.683Z,3.50
2022-11-23T15:37:41.093Z,2.63
2022-11-23T15:40:16.722Z,1.80
2022-11-23T15:42:45.213Z,2.50
2022-11-23T15:45:38.720Z,2.33
2022-11-23T15:48:12.972Z,2.05
2022-11-23T15:50:57.819Z,2.88
2022-11-23T15:53:32.877Z,4.40
2022-11-23T15:56:03.826Z,3.05
2022-11-23T15:58:31.644Z,2.75
2022-11-23T16:01:13.171Z,3.65
2022-11-23T16:03:40.520Z,2.20
2022-11-23T16:06:14.371Z,3.00
2022-11-23T16:08:41.700Z,2.88
2022-11-23T16:11:32.642Z,2.83
2022-11-23T16:14:20.793Z,2.67
2022-11-23T16:16:58.544Z,2.88
2022-11-23T16:19:29.944Z,2.38
2022-11-23T16:22:02.755Z,2.83
2022-11-23T16:24:33.318Z,2.97
2022-11-23T16:27:01.840Z,4.10
2022-11-23T16:29:37.028Z,2.72
2022-11-23T16:32:07.758Z,1.80
2022-11-23T16:34:35.528Z,1.73
2022-11-23T16:37:08.186Z,3.30
2022-11-23T16:39:35.463Z,2.30
2022-11-23T16:42:02.366Z,2.35
2022-11-23T16:44:30.134Z,4.28
2022-11-23T16:47:23.774Z,2.60
2022-11-23T16:49:51.861Z,2.75
2022-11-23T16:52:19.325Z,2.35
2022-11-23T16:54:46.551Z,3.60
2022-11-23T16:57:34.923Z,3.33
2022-11-23T17:00:05.124Z,2.03
2022-11-23T17:02:32.297Z,2.28
2022-11-23T17:04:59.559Z,2.40
2022-11-23T17:07:26.710Z,3.08
2022-11-23T17:09:53.645Z,2.20
2022-11-23T17:12:21.179Z,3.00
2022-11-23T17:14:49.450Z,4.15
2022-11-23T17:17:22.048Z,5.07
2022-11-23T17:19:50.143Z,2.90
2022-11-23T17:22:20.838Z,2.45
2022-11-23T17:24:48.768Z,2.20
2022-11-23T17:27:25.357Z,2.25
2022-11-23T17:30:00.664Z,2.45
2022-11-23T17:32:27.974Z,2.55
2022-11-23T17:34:55.376Z,2.63
2022-11-23T17:37:23.887Z,2.50
2022-11-23T17:39:51.502Z,2.58
2022-11-23T17:42:18.952Z,2.60
2022-11-23T17:44:46.765Z,2.60
2022-11-23T17:47:25.070Z,3.00
2022-11-23T17:49:52.961Z,2.90
2022-11-23T17:52:21.931Z,2.92
2022-11-23T17:54:49.220Z,2.65
2022-11-23T17:57:18.999Z,2.40
2022-11-23T17:59:46.557Z,2.95
2022-11-23T18:02:13.718Z,3.00
2022-11-23T18:04:41.017Z,2.38
2022-11-23T18:07:08.558Z,2.72
2022-11-23T18:09:35.660Z,3.47
2022-11-23T18:12:03.105Z,3.58
2022-11-23T18:14:30.642Z,3.42
2022-11-23T18:16:57.922Z,3.17
2022-11-23T18:19:24.938Z,2.38
2022-11-23T18:21:51.932Z,2.28
2022-11-23T18:24:19.098Z,3.47
2022-11-23T18:26:46.402Z,2.78
2022-11-23T18:29:17.102Z,2.53
2022-11-23T18:31:44.833Z,2.88
2022-11-23T18:34:11.875Z,2.80
2022-11-23T18:36:38.858Z,3.30
2022-11-23T18:39:06.331Z,3.00
2022-11-23T18:41:33.695Z,2.75
2022-11-23T18:44:01.008Z,3.20
2022-11-23T18:46:29.483Z,2.95
2022-11-23T18:48:57.483Z,3.03
2022-11-23T18:51:25.017Z,3.00
2022-11-23T18:53:53.273Z,2.65
2022-11-23T18:56:20.661Z,3.05
2022-11-23T18:58:48.380Z,3.30
2022-11-23T19:01:23.445Z,3.00
2022-11-23T19:03:53.254Z,2.90
2022-11-23T19:06:22.525Z,2.95
2022-11-23T19:08:53.560Z,3.45
2022-11-23T19:11:25.657Z,2.90
2022-11-23T19:13:54.587Z,2.75
2022-11-23T19:16:24.388Z,2.47
2022-11-23T19:18:59.457Z,3.10
2022-11-23T19:21:29.166Z,5.00
2022-11-23T19:23:57.455Z,3.47
2022-11-23T19:26:25.657Z,2.92
2022-11-23T19:28:53.576Z,3.38
2022-11-23T19:31:25.570Z,3.35
2022-11-23T19:33:54.374Z,3.42
2022-11-23T19:36:24.139Z,2.45
2022-11-23T19:38:52.099Z,2.97
2022-11-23T19:41:23.009Z,2.72
2022-11-23T19:43:54.514Z,2.88
2022-11-23T19:46:22.090Z,3.58
2022-11-23T19:48:49.728Z,2.88
2022-11-23T19:51:18.977Z,2.90
2022-11-23T19:53:47.843Z,3.15
2022-11-23T19:56:16.606Z,3.38
2022-11-23T19:58:44.271Z,3.95
2022-11-23T20:01:12.171Z,3.13
2022-11-23T20:03:40.696Z,3.08
2022-11-23T20:06:11.752Z,2.75
2022-11-23T20:08:39.108Z,3.08
2022-11-23T20:11:14.551Z,3.05
2022-11-23T20:13:42.011Z,2.47
2022-11-23T20:16:14.424Z,3.30
2022-11-23T20:18:42.794Z,2.70
2022-11-23T20:21:17.949Z,2.53
2022-11-23T20:23:46.421Z,2.72
2022-11-23T20:26:15.462Z,3.03
2022-11-23T20:28:43.168Z,2.60
2022-11-23T20:31:20.207Z,3.00
2022-11-23T20:33:50.609Z,2.50
2022-11-23T20:36:20.369Z,2.80
2022-11-23T20:38:47.801Z,2.67
2022-11-23T20:41:14.725Z,3.05
2022-11-23T20:43:42.675Z,2.92
2022-11-23T20:46:10.002Z,2.88
2022-11-23T20:48:38.023Z,2.70
2022-11-23T20:51:10.240Z,3.35
2022-11-23T20:53:37.613Z,2.88
2022-11-23T20:56:06.596Z,3.65
2022-11-23T20:58:34.988Z,3.72
2022-11-23T21:01:05.592Z,2.90
2022-11-23T21:03:34.000Z,3.15
2022-11-23T21:06:14.118Z,3.28
2022-11-23T21:08:43.049Z,3.08
2022-11-23T21:11:33.748Z,2.70
2022-11-23T21:14:09.996Z,3.33
2022-11-23T21:16:53.369Z,3.80
2022-11-23T21:19:31.873Z,2.60
2022-11-23T21:22:02.642Z,4.43
2022-11-23T21:24:29.652Z,3.53
2022-11-23T21:26:56.912Z,3.17
2022-11-23T21:29:26.957Z,3.67
2022-11-23T21:31:54.145Z,3.28
2022-11-23T21:34:29.980Z,3.00
2022-11-23T21:36:58.125Z,2.90
2022-11-23T21:39:25.633Z,3.30
2022-11-23T21:41:54.354Z,2.90
2022-11-23T21:44:24.992Z,2.42
2022-11-23T21:46:52.139Z,3.15
2022-11-23T21:49:19.355Z,2.78
2022-11-23T21:51:46.816Z,2.83
2022-11-23T21:54:15.794Z,3.15
2022-11-23T21:56:44.627Z,2.53
2022-11-23T21:59:12.324Z,2.88
2022-11-23T22:01:39.835Z,2.60
2022-11-23T22:04:09.896Z,2.65
2022-11-23T22:06:41.961Z,2.80
2022-11-23T22:09:09.884Z,3.33
2022-11-23T22:11:39.453Z,2.67
2022-11-23T22:14:08.679Z,2.60
2022-11-23T22:16:37.694Z,1.80
2022-11-23T22:19:05.479Z,2.25
2022-11-23T22:21:35.260Z,1.98
2022-11-23T22:24:03.006Z,2.45
2022-11-23T22:26:30.324Z,2.17
2022-11-23T22:29:02.379Z,2.08
2022-11-23T22:31:33.752Z,1.95
2022-11-23T22:34:12.279Z,2.03
2022-11-23T22:36:39.559Z,1.88
2022-11-23T22:39:07.746Z,1.60
2022-11-23T22:41:38.544Z,1.80
2022-11-23T22:44:08.065Z,2.08
2022-11-23T22:46:35.341Z,1.52
2022-11-23T22:49:03.042Z,1.58
2022-11-23T22:51:30.362Z,1.65
2022-11-23T22:53:58.998Z,1.60
2022-11-23T22:56:27.022Z,1.50
2022-11-23T22:58:54.295Z,1.40
2022-11-23T23:01:23.720Z,1.48
2022-11-23T23:03:58.699Z,1.60
2022-11-23T23:06:28.398Z,1.63
2022-11-23T23:09:00.277Z,1.25
2022-11-23T23:11:29.648Z,1.45
2022-11-23T23:13:57.324Z,1.58
2022-11-23T23:16:25.130Z,1.25
2022-11-23T23:18:52.545Z,1.63
2022-11-23T23:21:21.710Z,1.20
2022-11-23T23:23:50.835Z,1.30
2022-11-23T23:26:20.127Z,1.20
2022-11-23T23:28:47.844Z,1.17
2022-11-23T23:31:16.768Z,1.95
2022-11-23T23:33:44.367Z,1.23
2022-11-23T23:36:14.258Z,1.20
2022-11-23T23:38:41.674Z,1.33
2022-11-23T23:41:10.248Z,1.40
2022-11-23T23:43:37.595Z,1.38
2022-11-23T23:46:07.125Z,1.50
2022-11-23T23:48:36.847Z,1.55
2022-11-23T23:51:18.933Z,1.20
2022-11-23T23:53:46.487Z,1.55
2022-11-23T23:56:22.434Z,1.77
2022-11-23T23:58:49.918Z,1.10
